Flight Track Log - Related Links

Times and Time Zones

All times are in EDT time to prevent confusion due to time zone crossing. See the EJA947 flight status page for this flight to view local times or setup timezone preferences in your user account.

Time Position Orientation Groundspeed Altitude Reporting Facility
EDT Latitude Longitude Course Direction KTS MPH feet Rate Location/Type
Thu 07:55:21 AM 40.8892 -74.0458 353° North 192 221 1,800  Level New York Center
Thu 07:55:54 AM 40.9167 -74.0500 353° North 225 259 3,400 1,733 Climbing New York TRACON
Thu 07:58:21 AM 40.8481 -74.2411 245° Southwest 246 283 7,000 1,529 Climbing New York Center
Thu 07:59:22 AM 40.8122 -74.3244 240° Southwest 252 290 8,700 1,967 Climbing New York Center
Thu 08:00:23 AM 40.7847 -74.4106 247° West 281 323 11,000 1,983 Climbing New York Center
Thu 08:01:23 AM 40.7414 -74.5317 245° Southwest 327 376 12,700 1,900 Climbing New York Center
Thu 08:02:23 AM 40.6906 -74.6192 233° Southwest 343 395 14,800 1,983 Climbing New York Center
Thu 08:03:21 AM 40.6142 -74.7242 226° Southwest 360 414 16,600 1,613 Climbing New York Center
Thu 08:04:22 AM 40.5489 -74.8078 224° Southwest 371 427 18,000 1,600 Climbing New York Center
Thu 08:05:21 AM 40.4681 -74.9122 225° Southwest 377 434 19,800 1,600 Climbing New York Center
Thu 08:06:22 AM 40.3958 -75.0114 226° Southwest 377 434 21,200 1,438 Climbing New York Center
Thu 08:07:22 AM 40.3231 -75.1239 230° Southwest 386 444 22,700 1,650 Climbing New York Center
Thu 08:08:22 AM 40.2478 -75.2361 229° Southwest 407 468 24,500 1,587 Climbing New York Center
Thu 08:09:23 AM 40.1725 -75.3508 229° Southwest 413 475 25,900 1,412 Climbing New York Center
Thu 08:10:21 AM 40.0908 -75.4703 228° Southwest 427 491 27,300 1,350 Climbing New York Center
Thu 08:11:23 AM 40.0086 -75.5950 229° Southwest 441 507 28,600 1,525 Climbing New York Center
Thu 08:12:23 AM 39.9219 -75.7242 229° Southwest 461 531 30,400 1,587 Climbing New York Center
Thu 08:13:24 AM 39.8353 -75.8506 228° Southwest 467 537 31,800 1,107 Climbing New York Center
Thu 08:15:11 AM 39.6750 -76.0794 228° Southwest 472 543 33,500 790 Climbing Washington Center
Thu 08:16:11 AM 39.5850 -76.2161 230° Southwest 484 557 34,000 250 Climbing Washington Center
Thu 08:17:11 AM 39.4883 -76.3525 227° Southwest 508 585 34,000  Level Washington Center
Thu 08:18:11 AM 39.3997 -76.4939 231° Southwest 519 597 34,000  Level Washington Center
Thu 08:19:11 AM 39.2944 -76.6508 229° Southwest 524 603 34,000  Level Washington Center
Thu 08:20:11 AM 39.2033 -76.7917 230° Southwest 524 603 34,000  Level Washington Center
Thu 08:21:11 AM 39.1144 -76.9319 231° Southwest 518 596 34,000  Level Washington Center
Thu 08:22:11 AM 39.0169 -77.0636 226° Southwest 518 596 34,000  Level Washington Center
Thu 08:23:11 AM 38.9092 -77.1842 221° Southwest 518 596 34,000 -600 Level Washington Center
Thu 08:24:11 AM 38.7992 -77.3044 220° Southwest 518 596 32,800 -1,550 Descending Washington Center
Thu 08:25:11 AM 38.7036 -77.4111 221° Southwest 518 596 30,900 -1,400 Descending Washington Center
Thu 08:26:11 AM 38.5956 -77.5281 220° Southwest 518 596 30,000 -450 Descending Washington Center
Thu 08:27:11 AM 38.4872 -77.6472 221° Southwest 518 596 30,000  Level Washington Center
Thu 08:28:11 AM 38.3789 -77.7636 220° Southwest 518 596 30,000  Level Washington Center
Thu 08:29:11 AM 38.2703 -77.8819 221° Southwest 518 596 30,000  Level Washington Center
Thu 08:30:11 AM 38.1594 -78.0000 220° Southwest 518 596 30,000  Level Washington Center
Thu 08:31:11 AM 38.0508 -78.1178 221° Southwest 518 596 30,000  Level Washington Center
Thu 08:32:11 AM 37.9456 -78.2619 227° Southwest 513 590 30,000 -50 Level Washington Center
Thu 08:33:11 AM 37.8506 -78.3953 228° Southwest 513 590 29,900 -500 Descending Washington Center
Thu 08:34:11 AM 37.7556 -78.5308 228° Southwest 513 590 29,000 -1,250 Descending Washington Center
Thu 08:35:11 AM 37.6647 -78.6611 229° Southwest 513 590 27,400 -1,800 Descending Washington Center
Thu 08:36:11 AM 37.5825 -78.7733 227° Southwest 508 585 25,400 -2,000 Descending Washington Center
Thu 08:37:11 AM 37.4958 -78.8953 228° Southwest 495 570 23,400 -1,700 Descending Washington Center
Thu 08:38:11 AM 37.4111 -79.0172 229° Southwest 481 554 22,000 -700 Descending Washington Center
Thu 08:39:11 AM 37.3261 -79.1361 228° Southwest 471 542 22,000  Level Washington Center
Thu 08:40:11 AM 37.2253 -79.2306 217° Southwest 460 529 22,000 -150 Level Washington Center
Thu 08:41:11 AM 37.1000 -79.3078 206° Southwest 455 524 21,700 -1,200 Descending Washington Center
Thu 08:42:11 AM 36.9933 -79.3781 208° Southwest 455 524 19,600 -2,000 Descending Washington Center
Thu 08:43:11 AM 36.8847 -79.4456 206° Southwest 443 510 17,700 -1,950 Descending Washington Center
Thu 08:44:11 AM 36.7847 -79.5106 208° Southwest 436 502 15,700 -1,850 Descending Washington Center
Thu 08:45:11 AM 36.6950 -79.5683 207° Southwest 407 468 14,000 -1,700 Descending Washington Center
Thu 08:47:00 AM 36.5014 -79.6490 208° Southwest  Level FlightAware Approximate
Thu 08:54:00 AM 36.1000 -79.9333 28° Northeast  Level FlightAware Approximate
Thu 08:55:00 AM 36.1013 -79.9411 28° Northeast  Level Estimated
Thu 08:56:00 AM 36.1000 -79.9333 28° Northeast  Level FlightAware Approximate
Thu 08:57:00 AM 36.1013 -79.9411 28° Northeast  Level Estimated
Thu 08:58:00 AM 36.1000 -79.9333 28° Northeast  Level FlightAware Approximate
Thu 08:59:00 AM 36.1013 -79.9411 28° Northeast  Level Estimated
Thu 09:00:00 AM 36.1000 -79.9333 28° Northeast  Level FlightAware Approximate
Thu 09:01:00 AM 36.1013 -79.9411 28° Northeast  Level Estimated

Login

Don't have an account? Register now (free) for customized features, flight alerts, and more!